Time;durP1;ratioP1;P1;durP2;ratioP2;P2;SDS_P1;SDS_P2;PMS_P1;PMS_P2;Temp;Humidity;BMP_temperature;BMP_pressure;BME280_temperature;BME280_humidity;BME280_pressure;Samples;Min_cycle;Max_cycle;Signal;HPM_P1;HPM_P2
2023/05/01 00:02:11;;;;;;;9.25;8.45;;;;;;;;;;5038380;28;20206;-63
2023/05/01 00:04:38;;;;;;;8.63;7.82;;;;;;;;;;5038218;28;20213;-63
2023/05/01 00:07:06;;;;;;;8.93;8.20;;;;;;;;;;5038079;28;20306;-63
2023/05/01 00:09:34;;;;;;;8.70;7.90;;;;;;;;;;5038115;28;20245;-63
2023/05/01 00:12:02;;;;;;;9.63;8.75;;;;;;;;;;5038059;28;20234;-63
2023/05/01 00:14:30;;;;;;;8.85;8.05;;;;;;;;;;5037454;28;20206;-63
2023/05/01 00:16:58;;;;;;;10.02;9.20;;;;;;;;;;5036624;28;20604;-63
2023/05/01 00:19:27;;;;;;;9.50;8.70;;;;;;;;;;5038302;28;20216;-63
2023/05/01 00:21:54;;;;;;;9.65;8.75;;;;;;;;;;5038166;28;20267;-63
2023/05/01 00:24:23;;;;;;;9.30;8.50;;;;;;;;;;5037996;28;20209;-63
2023/05/01 00:26:50;;;;;;;10.40;9.38;;;;;;;;;;5037736;28;20205;-63
2023/05/01 00:29:18;;;;;;;9.15;8.40;;;;;;;;;;5037722;28;20267;-63
2023/05/01 00:31:46;;;;;;;9.73;8.93;;;;;;;;;;5037617;28;20525;-63
2023/05/01 00:34:13;;;;;;;10.40;9.50;;;;;;;;;;5038108;28;20471;-63
2023/05/01 00:36:43;;;;;;;9.55;8.75;;;;;;;;;;5037435;28;20744;-63
2023/05/01 00:39:11;;;;;;;10.10;9.20;;;;;;;;;;5037193;28;20206;-63
2023/05/01 00:41:38;;;;;;;10.68;9.77;;;;;;;;;;5037468;28;20201;-63
2023/05/01 00:44:06;;;;;;;10.15;9.25;;;;;;;;;;5037600;28;20220;-63
2023/05/01 00:46:35;;;;;;;10.82;9.93;;;;;;;;;;5037485;28;20206;-63
2023/05/01 00:49:02;;;;;;;10.52;9.63;;;;;;;;;;5037759;28;20244;-63
2023/05/01 00:51:30;;;;;;;11.27;10.27;;;;;;;;;;5037474;28;20233;-63
2023/05/01 00:54:00;;;;;;;10.88;9.90;;;;;;;;;;5037799;28;20205;-63
2023/05/01 00:56:28;;;;;;;10.63;9.68;;;;;;;;;;5037656;28;20205;-63
2023/05/01 00:58:57;;;;;;;11.35;10.35;;;;;;;;;;5037547;28;20216;-63
2023/05/01 01:01:24;;;;;;;11.00;10.10;;;;;;;;;;5037768;28;20483;-63
2023/05/01 01:03:53;;;;;;;11.82;10.82;;;;;;;;;;5037333;28;20206;-63
2023/05/01 01:06:26;;;;;;;11.57;10.57;;;;;;;;;;5037099;28;20214;-63
2023/05/01 01:08:59;;;;;;;11.70;10.70;;;;;;;;;;5037389;28;20206;-63
2023/05/01 01:11:31;;;;;;;11.55;10.55;;;;;;;;;;5036884;28;20244;-63
2023/05/01 01:14:00;;;;;;;12.00;11.00;;;;;;;;;;5037171;28;20255;-63
2023/05/01 01:16:33;;;;;;;12.15;11.15;;;;;;;;;;5037137;28;20478;-63
2023/05/01 01:19:05;;;;;;;11.90;10.90;;;;;;;;;;5037632;28;20224;-63
2023/05/01 01:21:36;;;;;;;12.02;11.02;;;;;;;;;;5037215;28;20206;-63
2023/05/01 01:24:19;;;;;;;12.85;11.75;;;;;;;;;;5036805;28;20225;-63
2023/05/01 01:27:02;;;;;;;12.40;11.30;;;;;;;;;;5036605;28;20212;-63
2023/05/01 01:29:40;;;;;;;11.98;10.98;;;;;;;;;;5039081;28;20512;-63
2023/05/01 01:32:16;;;;;;;12.73;11.63;;;;;;;;;;5040944;28;20237;-63
2023/05/01 01:34:48;;;;;;;13.23;12.02;;;;;;;;;;5040719;28;20490;-63
2023/05/01 01:37:18;;;;;;;12.52;11.45;;;;;;;;;;5041235;28;20213;-63
2023/05/01 01:39:48;;;;;;;13.68;12.48;;;;;;;;;;5041114;28;20206;-63
2023/05/01 01:42:19;;;;;;;12.68;11.60;;;;;;;;;;5041223;28;20201;-63
2023/05/01 01:44:50;;;;;;;13.60;12.43;;;;;;;;;;5041248;28;20213;-63
2023/05/01 01:47:20;;;;;;;13.65;12.45;;;;;;;;;;5040608;28;20502;-63
2023/05/01 01:49:50;;;;;;;13.82;12.63;;;;;;;;;;5040943;28;20228;-63
2023/05/01 01:52:19;;;;;;;12.73;11.73;;;;;;;;;;5040811;28;20229;-64
2023/05/01 01:54:49;;;;;;;13.88;12.60;;;;;;;;;;5040949;28;20209;-63
2023/05/01 01:57:19;;;;;;;13.95;12.75;;;;;;;;;;5040993;28;20448;-63
2023/05/01 01:59:48;;;;;;;13.88;12.68;;;;;;;;;;5041130;28;20206;-63
2023/05/01 02:02:17;;;;;;;13.95;12.85;;;;;;;;;;5040396;28;20214;-63
2023/05/01 02:04:45;;;;;;;14.80;13.50;;;;;;;;;;5040927;28;20206;-63
2023/05/01 02:07:15;;;;;;;14.32;13.15;;;;;;;;;;5040863;28;20212;-63
2023/05/01 02:09:43;;;;;;;14.35;13.05;;;;;;;;;;5040745;28;20212;-63
2023/05/01 02:12:12;;;;;;;14.23;13.02;;;;;;;;;;5040325;28;20241;-63
2023/05/01 02:14:40;;;;;;;14.65;13.45;;;;;;;;;;5040603;28;20487;-63
2023/05/01 02:17:09;;;;;;;14.32;13.13;;;;;;;;;;5040683;28;20288;-63
2023/05/01 02:19:39;;;;;;;14.95;13.65;;;;;;;;;;5040044;28;20486;-63
2023/05/01 02:22:08;;;;;;;15.30;14.00;;;;;;;;;;5040325;28;20202;-63
2023/05/01 02:24:38;;;;;;;15.30;14.07;;;;;;;;;;5040080;28;20587;-63
2023/05/01 02:27:08;;;;;;;15.77;14.38;;;;;;;;;;5040206;28;20628;-63
2023/05/01 02:29:36;;;;;;;15.73;14.32;;;;;;;;;;5039982;28;20271;-63
2023/05/01 02:32:04;;;;;;;15.57;14.27;;;;;;;;;;5040349;28;20480;-63
2023/05/01 02:34:34;;;;;;;15.07;13.77;;;;;;;;;;5039914;28;20265;-63
2023/05/01 02:37:02;;;;;;;16.30;14.82;;;;;;;;;;5040384;28;20210;-63
2023/05/01 02:39:30;;;;;;;15.27;13.98;;;;;;;;;;5039007;28;20217;-63
2023/05/01 02:42:00;;;;;;;16.00;14.63;;;;;;;;;;5040163;28;20210;-63
2023/05/01 02:44:29;;;;;;;16.55;15.10;;;;;;;;;;5039977;28;20268;-63
2023/05/01 02:46:57;;;;;;;15.85;14.55;;;;;;;;;;5039995;28;20206;-63
2023/05/01 02:49:25;;;;;;;16.17;14.77;;;;;;;;;;5039728;28;20209;-63
2023/05/01 02:51:53;;;;;;;15.98;14.68;;;;;;;;;;5039794;28;20644;-63
2023/05/01 02:54:21;;;;;;;16.02;14.68;;;;;;;;;;5039651;28;20205;-63
2023/05/01 02:56:49;;;;;;;16.27;14.95;;;;;;;;;;5039872;28;20214;-63
2023/05/01 02:59:18;;;;;;;17.00;15.60;;;;;;;;;;5039630;28;20206;-63
2023/05/01 03:01:46;;;;;;;16.75;15.32;;;;;;;;;;5039648;28;20635;-63
2023/05/01 03:04:13;;;;;;;17.02;15.52;;;;;;;;;;5039648;28;20213;-63
2023/05/01 03:06:43;;;;;;;17.60;16.10;;;;;;;;;;5039329;28;20237;-63
2023/05/01 03:09:11;;;;;;;16.17;14.75;;;;;;;;;;5039213;28;20205;-63
2023/05/01 03:11:39;;;;;;;17.27;15.77;;;;;;;;;;5039451;28;20276;-63
2023/05/01 03:14:10;;;;;;;17.25;15.75;;;;;;;;;;5039704;28;20205;-63
2023/05/01 03:16:39;;;;;;;17.23;15.73;;;;;;;;;;5039276;28;20206;-63
2023/05/01 03:19:06;;;;;;;17.65;16.15;;;;;;;;;;5039085;28;20271;-63
2023/05/01 03:21:35;;;;;;;17.50;16.00;;;;;;;;;;5038861;28;20213;-63
2023/05/01 03:24:03;;;;;;;18.45;16.75;;;;;;;;;;5039032;28;20238;-63
2023/05/01 03:26:31;;;;;;;18.27;16.67;;;;;;;;;;5038959;28;20206;-63
2023/05/01 03:28:59;;;;;;;17.90;16.40;;;;;;;;;;5038839;28;20509;-63
2023/05/01 03:31:26;;;;;;;17.77;16.27;;;;;;;;;;5038599;28;20582;-63
2023/05/01 03:33:56;;;;;;;18.55;16.92;;;;;;;;;;5039085;28;20229;-63
2023/05/01 03:36:24;;;;;;;18.75;17.10;;;;;;;;;;5039069;28;20206;-63
2023/05/01 03:38:51;;;;;;;18.85;17.25;;;;;;;;;;5039092;28;20249;-63
2023/05/01 03:41:20;;;;;;;18.45;16.95;;;;;;;;;;5038941;28;20209;-63
2023/05/01 03:43:47;;;;;;;18.98;17.30;;;;;;;;;;5039234;28;20600;-63
2023/05/01 03:46:15;;;;;;;19.83;18.08;;;;;;;;;;5038709;28;20233;-63
2023/05/01 03:48:43;;;;;;;18.83;17.23;;;;;;;;;;5038951;28;20205;-63
2023/05/01 03:51:12;;;;;;;18.52;17.02;;;;;;;;;;5037522;28;20213;-63
2023/05/01 03:53:40;;;;;;;18.98;17.35;;;;;;;;;;5038405;28;20261;-63
2023/05/01 03:56:08;;;;;;;18.52;16.95;;;;;;;;;;5038321;28;20206;-63
2023/05/01 03:58:35;;;;;;;19.42;17.73;;;;;;;;;;5038425;28;20205;-63
2023/05/01 04:01:03;;;;;;;19.35;17.65;;;;;;;;;;5038414;28;20223;-63
2023/05/01 04:03:30;;;;;;;19.08;17.38;;;;;;;;;;5038578;28;20597;-63
2023/05/01 04:05:58;;;;;;;19.25;17.55;;;;;;;;;;5038507;28;20271;-63
2023/05/01 04:08:27;;;;;;;18.92;17.33;;;;;;;;;;5038306;28;20206;-63
2023/05/01 04:10:54;;;;;;;18.67;17.08;;;;;;;;;;5037833;28;20787;-63
2023/05/01 04:13:23;;;;;;;18.67;17.17;;;;;;;;;;5040700;28;20233;-63
2023/05/01 04:15:54;;;;;;;19.42;17.75;;;;;;;;;;5044342;28;20231;-63
2023/05/01 04:18:22;;;;;;;20.25;18.55;;;;;;;;;;5042459;28;20216;-63
2023/05/01 04:20:52;;;;;;;19.92;18.23;;;;;;;;;;5043073;28;20485;-63
2023/05/01 04:23:20;;;;;;;19.65;17.95;;;;;;;;;;5043798;28;20285;-62
2023/05/01 04:25:50;;;;;;;19.45;17.75;;;;;;;;;;5043510;28;20526;-62
2023/05/01 04:28:18;;;;;;;19.42;17.73;;;;;;;;;;5044617;28;20220;-62
2023/05/01 04:30:47;;;;;;;20.30;18.45;;;;;;;;;;5044664;28;20214;-63
2023/05/01 04:33:16;;;;;;;19.98;18.23;;;;;;;;;;5044378;28;20252;-63
2023/05/01 04:35:45;;;;;;;19.95;18.25;;;;;;;;;;5043395;28;20612;-63
2023/05/01 04:38:13;;;;;;;20.40;18.65;;;;;;;;;;5026862;28;20206;-63
2023/05/01 04:41:13;;;;;;;20.40;18.67;;;;;;;;;;5042712;28;20604;-63
2023/05/01 04:43:42;;;;;;;20.08;18.35;;;;;;;;;;5041333;28;20273;-63
2023/05/01 04:46:10;;;;;;;20.98;19.17;;;;;;;;;;5041860;28;20206;-63
2023/05/01 04:48:40;;;;;;;20.70;18.85;;;;;;;;;;5040943;28;20205;-63
2023/05/01 04:51:11;;;;;;;19.63;18.02;;;;;;;;;;5042059;28;20231;-63
2023/05/01 04:53:38;;;;;;;20.35;18.55;;;;;;;;;;5042727;28;20237;-63
2023/05/01 04:56:06;;;;;;;20.40;18.55;;;;;;;;;;5037366;28;20206;-63
2023/05/01 04:58:33;;;;;;;21.20;19.40;;;;;;;;;;5037236;28;20252;-63
2023/05/01 05:01:02;;;;;;;20.50;18.70;;;;;;;;;;5036891;28;20217;-63
2023/05/01 05:03:30;;;;;;;20.48;18.67;;;;;;;;;;5036850;28;20716;-63
2023/05/01 05:05:57;;;;;;;21.55;19.65;;;;;;;;;;5037268;28;20550;-63
2023/05/01 05:08:25;;;;;;;20.42;18.63;;;;;;;;;;5037012;28;20210;-63
2023/05/01 05:10:57;;;;;;;21.42;19.63;;;;;;;;;;5036543;28;20570;-63
2023/05/01 05:13:25;;;;;;;21.40;19.60;;;;;;;;;;5036231;28;20229;-63
2023/05/01 05:15:52;;;;;;;21.80;19.80;;;;;;;;;;5037041;28;20572;-63
2023/05/01 05:18:21;;;;;;;21.48;19.58;;;;;;;;;;5036833;28;20248;-63
2023/05/01 05:20:49;;;;;;;20.77;19.00;;;;;;;;;;5036820;28;20572;-63
2023/05/01 05:23:16;;;;;;;21.33;19.50;;;;;;;;;;5037513;28;20256;-63
2023/05/01 05:25:44;;;;;;;21.67;19.65;;;;;;;;;;5037091;28;20539;-63
2023/05/01 05:28:11;;;;;;;21.77;19.88;;;;;;;;;;5037196;28;20205;-63
2023/05/01 05:30:39;;;;;;;20.80;19.05;;;;;;;;;;5037018;28;20288;-63
2023/05/01 05:33:08;;;;;;;21.65;19.75;;;;;;;;;;5036181;28;20226;-63
2023/05/01 05:35:37;;;;;;;21.30;19.50;;;;;;;;;;5036272;28;20216;-63
2023/05/01 05:38:05;;;;;;;21.73;19.73;;;;;;;;;;5037275;28;20232;-63
2023/05/01 05:40:32;;;;;;;21.67;19.88;;;;;;;;;;5036902;28;20652;-63
2023/05/01 05:42:59;;;;;;;21.65;19.75;;;;;;;;;;5037528;28;20252;-63
2023/05/01 05:45:28;;;;;;;21.25;19.45;;;;;;;;;;5037357;28;20240;-63
2023/05/01 05:47:55;;;;;;;22.00;20.02;;;;;;;;;;5036812;28;20584;-63
2023/05/01 05:50:23;;;;;;;21.30;19.50;;;;;;;;;;5037032;28;20597;-63
2023/05/01 05:52:52;;;;;;;21.88;20.05;;;;;;;;;;5037122;28;20264;-63
2023/05/01 05:55:19;;;;;;;22.30;20.40;;;;;;;;;;5036763;28;20216;-63
2023/05/01 05:57:47;;;;;;;21.35;19.48;;;;;;;;;;5036966;28;20241;-63
2023/05/01 06:00:16;;;;;;;22.23;20.33;;;;;;;;;;5036374;28;20305;-63
2023/05/01 06:02:43;;;;;;;22.65;20.55;;;;;;;;;;5036827;28;20204;-63
2023/05/01 06:05:11;;;;;;;21.88;19.98;;;;;;;;;;5036530;28;20217;-63
2023/05/01 06:07:38;;;;;;;21.60;19.70;;;;;;;;;;5036689;28;20252;-63
2023/05/01 06:10:08;;;;;;;21.98;20.08;;;;;;;;;;5036689;28;20220;-63
2023/05/01 06:12:37;;;;;;;22.23;20.33;;;;;;;;;;5036071;28;20237;-63
2023/05/01 06:15:05;;;;;;;22.58;20.67;;;;;;;;;;5037696;28;20220;-64
2023/05/01 06:17:33;;;;;;;22.25;20.25;;;;;;;;;;5040484;28;20344;-64
2023/05/01 06:20:00;;;;;;;22.52;20.50;;;;;;;;;;5040407;28;20665;-64
2023/05/01 06:22:28;;;;;;;22.23;20.33;;;;;;;;;;5040575;28;20581;-63
2023/05/01 06:24:56;;;;;;;21.88;19.88;;;;;;;;;;5040148;28;20206;-63
2023/05/01 06:27:24;;;;;;;22.23;20.33;;;;;;;;;;5040159;28;20213;-63
2023/05/01 06:29:52;;;;;;;22.23;20.33;;;;;;;;;;5039513;28;20209;-63
2023/05/01 06:32:19;;;;;;;22.73;20.83;;;;;;;;;;5039442;28;20695;-63
2023/05/01 06:34:47;;;;;;;22.70;20.77;;;;;;;;;;5039969;28;20324;-63
2023/05/01 06:37:15;;;;;;;23.42;21.33;;;;;;;;;;5040269;28;20249;-63
2023/05/01 06:39:42;;;;;;;22.40;20.52;;;;;;;;;;5040002;28;20260;-63
2023/05/01 06:42:14;;;;;;;23.25;21.33;;;;;;;;;;5040086;28;20296;-63
2023/05/01 06:44:43;;;;;;;23.95;21.85;;;;;;;;;;5039722;28;20213;-63
2023/05/01 06:47:10;;;;;;;23.70;21.60;;;;;;;;;;5040044;28;20258;-63
2023/05/01 06:49:38;;;;;;;24.10;22.00;;;;;;;;;;5039522;28;20248;-63
2023/05/01 06:52:06;;;;;;;22.80;20.83;;;;;;;;;;5039768;28;20198;-63
2023/05/01 06:54:33;;;;;;;23.27;21.27;;;;;;;;;;5039623;28;20607;-63
2023/05/01 06:57:01;;;;;;;23.77;21.73;;;;;;;;;;5039703;28;20300;-63
2023/05/01 06:59:28;;;;;;;23.52;21.50;;;;;;;;;;5039447;28;20303;-63
2023/05/01 07:01:57;;;;;;;23.50;21.50;;;;;;;;;;5039314;28;20213;-64
2023/05/01 07:04:25;;;;;;;22.30;20.40;;;;;;;;;;5039351;28;20400;-63
2023/05/01 07:06:52;;;;;;;23.42;21.40;;;;;;;;;;5039290;28;20287;-63
2023/05/01 07:09:20;;;;;;;23.80;21.80;;;;;;;;;;5038582;28;20205;-63
2023/05/01 07:11:48;;;;;;;23.23;21.27;;;;;;;;;;5038301;28;20332;-63
2023/05/01 07:14:16;;;;;;;23.10;21.10;;;;;;;;;;5038483;28;20324;-63
2023/05/01 07:16:44;;;;;;;23.40;21.40;;;;;;;;;;5038568;28;20577;-63
2023/05/01 07:19:13;;;;;;;22.80;20.80;;;;;;;;;;5038859;28;20214;-63
2023/05/01 07:21:41;;;;;;;22.50;20.60;;;;;;;;;;5039469;28;20202;-64
2023/05/01 07:24:08;;;;;;;22.05;20.05;;;;;;;;;;5038718;28;20296;-63
2023/05/01 07:26:37;;;;;;;21.95;20.15;;;;;;;;;;5039267;28;20213;-64
2023/05/01 07:29:04;;;;;;;22.90;20.90;;;;;;;;;;5039335;28;20212;-63
2023/05/01 07:31:32;;;;;;;22.50;20.60;;;;;;;;;;5038724;28;20206;-63
2023/05/01 07:34:00;;;;;;;22.70;20.77;;;;;;;;;;5038552;28;20316;-63
2023/05/01 07:36:29;;;;;;;22.38;20.48;;;;;;;;;;5037518;28;20245;-63
2023/05/01 07:38:57;;;;;;;22.10;20.13;;;;;;;;;;5038081;28;20205;-63
2023/05/01 07:41:25;;;;;;;21.35;19.55;;;;;;;;;;5037801;28;20221;-63
2023/05/01 07:43:53;;;;;;;21.63;19.77;;;;;;;;;;5037988;28;20216;-63
2023/05/01 07:46:20;;;;;;;22.83;20.77;;;;;;;;;;5038113;28;20240;-63
2023/05/01 07:48:48;;;;;;;22.00;20.17;;;;;;;;;;5037685;28;20257;-63
2023/05/01 07:51:17;;;;;;;21.15;19.35;;;;;;;;;;5037300;28;20241;-63
2023/05/01 07:53:46;;;;;;;21.23;19.42;;;;;;;;;;5037160;28;20221;-63
2023/05/01 07:56:14;;;;;;;20.75;19.05;;;;;;;;;;5037792;28;20205;-63
2023/05/01 07:58:42;;;;;;;20.63;18.88;;;;;;;;;;5037343;28;20237;-63
2023/05/01 08:01:10;;;;;;;20.52;18.73;;;;;;;;;;5037873;28;20214;-63
2023/05/01 08:03:37;;;;;;;19.75;18.05;;;;;;;;;;5037652;28;20512;-63
2023/05/01 08:06:05;;;;;;;19.90;18.30;;;;;;;;;;5038341;28;20205;-63
2023/05/01 08:08:32;;;;;;;19.40;17.80;;;;;;;;;;5037015;28;20237;-63
2023/05/01 08:11:02;;;;;;;20.20;18.50;;;;;;;;;;5036668;28;20287;-63
2023/05/01 08:13:29;;;;;;;20.33;18.52;;;;;;;;;;5037037;28;20257;-63
2023/05/01 08:15:58;;;;;;;19.42;17.80;;;;;;;;;;5037449;28;20529;-63
2023/05/01 08:18:25;;;;;;;19.52;17.92;;;;;;;;;;5037359;28;20206;-63
2023/05/01 08:20:53;;;;;;;18.70;17.20;;;;;;;;;;5037144;28;20288;-63
2023/05/01 08:23:20;;;;;;;19.08;17.38;;;;;;;;;;5029703;28;20198;-63
2023/05/01 08:25:50;;;;;;;18.02;16.42;;;;;;;;;;5017905;28;20301;-63
2023/05/01 08:28:20;;;;;;;18.30;16.80;;;;;;;;;;5017588;28;20273;-63
2023/05/01 08:30:48;;;;;;;18.48;16.88;;;;;;;;;;5017666;28;20212;-63
2023/05/01 08:33:16;;;;;;;17.95;16.45;;;;;;;;;;5017662;28;20198;-63
2023/05/01 08:35:43;;;;;;;17.58;16.08;;;;;;;;;;5017154;28;20464;-63
2023/05/01 08:38:11;;;;;;;18.08;16.58;;;;;;;;;;5016668;28;20649;-63
2023/05/01 08:40:39;;;;;;;17.00;15.60;;;;;;;;;;5017375;28;20207;-64
2023/05/01 08:43:07;;;;;;;16.90;15.50;;;;;;;;;;5017178;28;20217;-64
2023/05/01 08:45:37;;;;;;;17.25;15.82;;;;;;;;;;5017075;28;20289;-64
2023/05/01 08:48:06;;;;;;;16.30;14.88;;;;;;;;;;5017215;28;20210;-64
2023/05/01 08:50:36;;;;;;;16.65;15.25;;;;;;;;;;5016108;28;20210;-64
2023/05/01 08:53:04;;;;;;;17.00;15.50;;;;;;;;;;5016311;28;20233;-64
2023/05/01 08:55:32;;;;;;;16.15;14.75;;;;;;;;;;5016633;28;20718;-64
2023/05/01 08:58:00;;;;;;;15.65;14.30;;;;;;;;;;5017192;28;20217;-64
2023/05/01 09:00:27;;;;;;;16.63;15.23;;;;;;;;;;5016676;28;20275;-64
2023/05/01 09:02:57;;;;;;;16.17;14.88;;;;;;;;;;5017025;28;20245;-63
2023/05/01 09:05:24;;;;;;;16.02;14.70;;;;;;;;;;5016848;28;20202;-63
2023/05/01 09:07:52;;;;;;;16.13;14.80;;;;;;;;;;5016576;28;20273;-63
2023/05/01 09:10:20;;;;;;;15.02;13.73;;;;;;;;;;5016269;28;20590;-64
2023/05/01 09:12:50;;;;;;;15.40;14.10;;;;;;;;;;5016777;28;20242;-64
2023/05/01 09:15:18;;;;;;;15.32;14.02;;;;;;;;;;5017140;28;20226;-64
2023/05/01 09:17:46;;;;;;;14.95;13.75;;;;;;;;;;5016928;28;20305;-64
2023/05/01 09:20:15;;;;;;;14.85;13.60;;;;;;;;;;5016415;28;20206;-64
2023/05/01 09:22:42;;;;;;;15.20;13.90;;;;;;;;;;5016277;28;20203;-64
2023/05/01 09:25:10;;;;;;;14.40;13.15;;;;;;;;;;5016322;28;20309;-63
2023/05/01 09:27:38;;;;;;;14.73;13.35;;;;;;;;;;5016930;28;20210;-63
2023/05/01 09:30:06;;;;;;;14.15;12.85;;;;;;;;;;5016614;28;20245;-63
2023/05/01 09:32:34;;;;;;;14.55;13.20;;;;;;;;;;5016672;28;20321;-63
2023/05/01 09:35:11;;;;;;;14.48;13.15;;;;;;;;;;5016233;28;20614;-63
2023/05/01 09:37:40;;;;;;;14.50;13.07;;;;;;;;;;5016240;28;20220;-63
2023/05/01 09:40:08;;;;;;;14.05;12.85;;;;;;;;;;5016270;28;20206;-63
2023/05/01 09:42:36;;;;;;;13.85;12.65;;;;;;;;;;5016117;28;20215;-63
2023/05/01 09:45:05;;;;;;;14.15;12.95;;;;;;;;;;5016482;28;20234;-63
2023/05/01 09:47:33;;;;;;;13.30;12.10;;;;;;;;;;5016553;28;20695;-63
2023/05/01 09:50:00;;;;;;;14.10;12.80;;;;;;;;;;5017118;28;20206;-63
2023/05/01 09:52:28;;;;;;;13.73;12.43;;;;;;;;;;5019122;28;20202;-63
2023/05/01 09:55:13;;;;;;;13.00;11.90;;;;;;;;;;5018886;28;20226;-63
2023/05/01 09:57:42;;;;;;;13.27;12.18;;;;;;;;;;5019023;28;20330;-63
2023/05/01 10:00:11;;;;;;;12.57;11.38;;;;;;;;;;5019924;28;20281;-63
2023/05/01 10:02:38;;;;;;;12.20;11.18;;;;;;;;;;5019287;28;20272;-63
2023/05/01 10:05:07;;;;;;;12.07;11.07;;;;;;;;;;5019654;28;20589;-63
2023/05/01 10:07:35;;;;;;;12.48;11.38;;;;;;;;;;5020605;28;20240;-63
2023/05/01 10:10:20;;;;;;;12.10;11.15;;;;;;;;;;5020162;28;20206;-63
2023/05/01 10:12:49;;;;;;;11.52;10.63;;;;;;;;;;5018902;28;20662;-63
2023/05/01 10:15:17;;;;;;;11.88;10.88;;;;;;;;;;5019293;28;20218;-63
2023/05/01 10:17:45;;;;;;;11.05;10.07;;;;;;;;;;5019549;28;20301;-64
2023/05/01 10:20:13;;;;;;;11.55;10.52;;;;;;;;;;5018570;28;20237;-63
2023/05/01 10:22:41;;;;;;;11.43;10.45;;;;;;;;;;5019173;28;20209;-63
2023/05/01 10:25:10;;;;;;;11.45;10.45;;;;;;;;;;5018929;28;20198;-63
2023/05/01 10:27:40;;;;;;;11.93;10.82;;;;;;;;;;5018689;28;20241;-63
2023/05/01 10:30:09;;;;;;;10.98;9.93;;;;;;;;;;5018609;28;20210;-63
2023/05/01 10:32:37;;;;;;;10.80;9.90;;;;;;;;;;5018811;28;20242;-63
2023/05/01 10:35:08;;;;;;;10.35;9.45;;;;;;;;;;5018065;28;20307;-63
2023/05/01 10:37:38;;;;;;;9.98;9.07;;;;;;;;;;5018337;28;20242;-63
2023/05/01 10:40:25;;;;;;;10.70;9.70;;;;;;;;;;5018910;28;20213;-63
2023/05/01 10:43:11;;;;;;;10.32;9.35;;;;;;;;;;5018410;28;20206;-63
2023/05/01 10:45:41;;;;;;;10.63;9.63;;;;;;;;;;5018868;28;20738;-63
2023/05/01 10:48:08;;;;;;;9.93;9.02;;;;;;;;;;5019098;28;20214;-63
2023/05/01 10:50:36;;;;;;;10.13;9.23;;;;;;;;;;5018196;28;20238;-63
2023/05/01 10:53:19;;;;;;;9.63;8.82;;;;;;;;;;5018566;28;20233;-63
2023/05/01 10:55:48;;;;;;;9.57;8.70;;;;;;;;;;5018552;28;20269;-63
2023/05/01 10:58:35;;;;;;;9.88;8.98;;;;;;;;;;5017998;28;20272;-64
2023/05/01 11:01:29;;;;;;;9.93;9.13;;;;;;;;;;5016419;28;20254;-63
2023/05/01 11:03:56;;;;;;;8.60;7.90;;;;;;;;;;5018355;28;20206;-63
2023/05/01 11:06:24;;;;;;;9.40;8.63;;;;;;;;;;5019038;28;20207;-63
2023/05/01 11:08:52;;;;;;;8.50;7.80;;;;;;;;;;5018804;28;20241;-63
2023/05/01 11:11:37;;;;;;;8.48;7.75;;;;;;;;;;5017673;28;20241;-63
2023/05/01 11:14:06;;;;;;;7.90;7.30;;;;;;;;;;5017559;28;20293;-63
2023/05/01 11:16:47;;;;;;;8.10;7.40;;;;;;;;;;5017164;28;20221;-63
2023/05/01 11:19:29;;;;;;;8.43;7.68;;;;;;;;;;5016932;28;20495;-64
2023/05/01 11:21:56;;;;;;;7.40;6.80;;;;;;;;;;5014755;28;20213;-63
2023/05/01 11:24:31;;;;;;;7.35;6.53;;;;;;;;;;5016429;28;20241;-63
2023/05/01 11:27:00;;;;;;;7.95;7.07;;;;;;;;;;5017030;28;20244;-63
2023/05/01 11:29:32;;;;;;;7.57;6.97;;;;;;;;;;5017026;28;20206;-63
2023/05/01 11:32:01;;;;;;;7.60;7.00;;;;;;;;;;5017890;28;20485;-63
2023/05/01 11:34:29;;;;;;;7.22;6.57;;;;;;;;;;5017369;28;20222;-63
2023/05/01 11:36:56;;;;;;;7.03;6.43;;;;;;;;;;5016924;28;20217;-63
2023/05/01 11:39:23;;;;;;;6.90;6.30;;;;;;;;;;5017371;28;20590;-63
2023/05/01 11:41:51;;;;;;;6.88;6.35;;;;;;;;;;5017591;28;20240;-63
2023/05/01 11:44:19;;;;;;;7.28;6.55;;;;;;;;;;5017169;28;20707;-63
2023/05/01 11:46:46;;;;;;;6.45;5.90;;;;;;;;;;5017411;28;20301;-63
2023/05/01 11:49:16;;;;;;;6.55;5.97;;;;;;;;;;5017055;28;20198;-63
2023/05/01 11:51:43;;;;;;;6.57;5.97;;;;;;;;;;5016892;28;20587;-63
2023/05/01 11:54:12;;;;;;;6.70;6.10;;;;;;;;;;5016824;28;20292;-63
2023/05/01 11:56:39;;;;;;;6.20;5.70;;;;;;;;;;5017094;28;20223;-63
2023/05/01 11:59:11;;;;;;;6.20;5.70;;;;;;;;;;5016548;28;20288;-63
2023/05/01 12:01:39;;;;;;;6.05;5.55;;;;;;;;;;5016749;28;20221;-63
2023/05/01 12:04:08;;;;;;;5.97;5.47;;;;;;;;;;5017209;28;20349;-63
2023/05/01 12:06:43;;;;;;;6.50;5.90;;;;;;;;;;5016507;28;20214;-63
2023/05/01 12:09:11;;;;;;;5.97;5.47;;;;;;;;;;5016899;28;20216;-63
2023/05/01 12:11:39;;;;;;;6.03;5.53;;;;;;;;;;5016300;28;20248;-63
2023/05/01 12:14:07;;;;;;;5.82;5.32;;;;;;;;;;5015762;28;20286;-63
2023/05/01 12:16:35;;;;;;;6.05;5.55;;;;;;;;;;5016205;28;20230;-63
2023/05/01 12:19:03;;;;;;;5.68;5.22;;;;;;;;;;5016366;28;20241;-63
2023/05/01 12:21:30;;;;;;;5.93;5.43;;;;;;;;;;5016295;28;20289;-63
2023/05/01 12:24:08;;;;;;;5.93;5.38;;;;;;;;;;5015778;28;20206;-63
2023/05/01 12:26:35;;;;;;;5.90;5.40;;;;;;;;;;5014872;28;20575;-63
2023/05/01 12:29:04;;;;;;;5.72;5.22;;;;;;;;;;5014529;28;20578;-63
2023/05/01 12:31:32;;;;;;;5.80;5.30;;;;;;;;;;5015373;28;20269;-63
2023/05/01 12:34:01;;;;;;;5.93;5.40;;;;;;;;;;5015026;28;20205;-63
2023/05/01 12:36:30;;;;;;;5.68;5.20;;;;;;;;;;5014986;28;20261;-63
2023/05/01 12:39:03;;;;;;;5.68;5.18;;;;;;;;;;5015858;28;20221;-63
2023/05/01 12:41:34;;;;;;;5.85;5.30;;;;;;;;;;5015634;28;20567;-63
2023/05/01 12:44:02;;;;;;;5.20;4.80;;;;;;;;;;5016549;28;20213;-63
2023/05/01 12:46:30;;;;;;;5.70;5.20;;;;;;;;;;5015046;28;20614;-63
2023/05/01 12:48:57;;;;;;;6.10;5.40;;;;;;;;;;5016299;28;20305;-63
2023/05/01 12:51:26;;;;;;;5.35;4.85;;;;;;;;;;5016353;28;20202;-63
2023/05/01 12:53:56;;;;;;;5.90;5.30;;;;;;;;;;5015358;28;20232;-63
2023/05/01 12:56:25;;;;;;;5.25;4.75;;;;;;;;;;5014966;28;20226;-63
2023/05/01 12:58:54;;;;;;;5.45;5.03;;;;;;;;;;5015078;28;20285;-63
2023/05/01 13:01:26;;;;;;;5.72;5.13;;;;;;;;;;5016004;28;20217;-63
2023/05/01 13:03:55;;;;;;;5.60;5.10;;;;;;;;;;5015759;28;20492;-63
2023/05/01 13:06:23;;;;;;;5.55;5.00;;;;;;;;;;5016283;28;20203;-64
2023/05/01 13:08:50;;;;;;;5.82;5.25;;;;;;;;;;5015470;28;20285;-63
2023/05/01 13:11:18;;;;;;;5.20;4.70;;;;;;;;;;5015281;28;20246;-63
2023/05/01 13:13:48;;;;;;;5.95;5.30;;;;;;;;;;5015281;28;20333;-63
2023/05/01 13:16:16;;;;;;;5.65;5.07;;;;;;;;;;5015282;28;20261;-63
2023/05/01 13:18:44;;;;;;;5.40;4.90;;;;;;;;;;5015720;28;20238;-63
2023/05/01 13:21:14;;;;;;;5.30;4.80;;;;;;;;;;5015535;28;20205;-63
2023/05/01 13:23:42;;;;;;;5.50;5.00;;;;;;;;;;5015644;28;20203;-63
2023/05/01 13:26:10;;;;;;;5.25;4.85;;;;;;;;;;5014594;28;20634;-63
2023/05/01 13:28:44;;;;;;;5.35;4.85;;;;;;;;;;4998810;28;20195;-63
2023/05/01 13:31:14;;;;;;;4.88;4.55;;;;;;;;;;4995797;28;20207;-63
2023/05/01 13:33:43;;;;;;;5.15;4.72;;;;;;;;;;4995256;28;20261;-64
2023/05/01 13:36:11;;;;;;;5.00;4.60;;;;;;;;;;4995159;28;20227;-64
2023/05/01 13:38:44;;;;;;;4.80;4.40;;;;;;;;;;4996006;28;20289;-63
2023/05/01 13:41:17;;;;;;;5.55;5.05;;;;;;;;;;4996018;28;20206;-63
2023/05/01 13:43:44;;;;;;;5.18;4.70;;;;;;;;;;4995490;28;20253;-63
2023/05/01 13:46:12;;;;;;;5.10;4.57;;;;;;;;;;4995248;28;20293;-64
2023/05/01 13:48:42;;;;;;;5.00;4.60;;;;;;;;;;4994956;28;20246;-63
2023/05/01 13:51:10;;;;;;;5.03;4.63;;;;;;;;;;4995856;28;20213;-63
2023/05/01 13:53:37;;;;;;;4.72;4.32;;;;;;;;;;4994676;28;20314;-63
2023/05/01 13:56:05;;;;;;;5.03;4.57;;;;;;;;;;4994599;28;20226;-63
2023/05/01 13:58:33;;;;;;;5.07;4.68;;;;;;;;;;4995297;28;20692;-64
2023/05/01 14:01:02;;;;;;;5.28;4.85;;;;;;;;;;4995021;28;20305;-64
2023/05/01 14:03:31;;;;;;;7.18;4.40;;;;;;;;;;4995404;28;20211;-63
2023/05/01 14:06:00;;;;;;;4.25;3.95;;;;;;;;;;4995089;28;20195;-64
2023/05/01 14:08:29;;;;;;;5.00;4.60;;;;;;;;;;4995020;28;20243;-63
2023/05/01 14:10:58;;;;;;;4.85;4.38;;;;;;;;;;4996055;28;20294;-63
2023/05/01 14:13:27;;;;;;;5.40;4.63;;;;;;;;;;5014668;28;20301;-63
2023/05/01 14:15:55;;;;;;;6.53;4.70;;;;;;;;;;5014812;28;20232;-63
2023/05/01 14:18:22;;;;;;;4.82;4.43;;;;;;;;;;5014586;28;20214;-63
2023/05/01 14:20:50;;;;;;;6.60;4.82;;;;;;;;;;5014540;28;20631;-64
2023/05/01 14:23:21;;;;;;;4.68;4.25;;;;;;;;;;5014861;28;20206;-63
2023/05/01 14:25:49;;;;;;;6.22;4.63;;;;;;;;;;5015023;28;20202;-63
2023/05/01 14:28:17;;;;;;;7.63;4.95;;;;;;;;;;5014892;28;20712;-64
2023/05/01 14:30:46;;;;;;;7.28;5.25;;;;;;;;;;5014788;28;20203;-65
2023/05/01 14:33:14;;;;;;;10.30;9.32;;;;;;;;;;5015228;28;20658;-65
2023/05/01 14:35:45;;;;;;;10.93;9.75;;;;;;;;;;5015782;28;20513;-65
2023/05/01 14:38:13;;;;;;;27.80;20.90;;;;;;;;;;5018432;28;20285;-64